Time;durP1;ratioP1;P1;durP2;ratioP2;P2;SDS_P1;SDS_P2;PMS_P1;PMS_P2;Temp;Humidity;BMP_temperature;BMP_pressure;BME280_temperature;BME280_humidity;BME280_pressure;Samples;Min_cycle;Max_cycle;Signal;HPM_P1;HPM_P2
2022/04/28 00:00:24;;;;;;;14.05;4.57;;;8.60;99.90;;;;;;4863185;29;20109;-78
2022/04/28 00:02:50;;;;;;;11.43;3.50;;;8.60;99.90;;;;;;4863374;29;20127;-78
2022/04/28 00:05:15;;;;;;;14.70;4.47;;;8.70;99.90;;;;;;4879989;29;20140;-78
2022/04/28 00:07:42;;;;;;;9.40;4.18;;;8.70;99.90;;;;;;4878918;29;20116;-78
2022/04/28 00:10:09;;;;;;;8.65;4.05;;;8.70;99.90;;;;;;4879756;29;20052;-78
2022/04/28 00:12:36;;;;;;;16.05;3.70;;;8.70;99.90;;;;;;4879828;29;20053;-78
2022/04/28 00:15:02;;;;;;;10.48;3.72;;;8.80;99.90;;;;;;4879794;29;20049;-78
2022/04/28 00:17:28;;;;;;;9.52;3.30;;;8.90;99.90;;;;;;4879897;29;20132;-78
2022/04/28 00:19:53;;;;;;;11.07;3.38;;;8.90;99.90;;;;;;4878529;29;20127;-78
2022/04/28 00:22:19;;;;;;;12.50;3.78;;;8.90;99.90;;;;;;4878793;29;20104;-78
2022/04/28 00:24:45;;;;;;;9.18;3.65;;;8.80;99.90;;;;;;4879721;29;20052;-78
2022/04/28 00:27:10;;;;;;;11.07;3.55;;;8.80;99.90;;;;;;4878536;29;20056;-78
2022/04/28 00:29:36;;;;;;;7.35;3.40;;;8.80;99.90;;;;;;4879834;29;20049;-78
2022/04/28 00:32:02;;;;;;;8.38;3.20;;;8.80;99.90;;;;;;4863256;29;20049;-78
2022/04/28 00:34:27;;;;;;;10.88;3.70;;;8.90;99.90;;;;;;4879706;29;20053;-78
2022/04/28 00:36:53;;;;;;;10.82;4.28;;;8.90;99.90;;;;;;4879761;29;20423;-78
2022/04/28 00:39:19;;;;;;;11.10;3.75;;;8.90;99.90;;;;;;4863182;29;20411;-78
2022/04/28 00:41:44;;;;;;;9.70;3.72;;;9.00;99.90;;;;;;4878402;29;20052;-78
2022/04/28 00:44:11;;;;;;;6.22;3.50;;;9.00;99.90;;;;;;4862613;29;20093;-78
2022/04/28 00:46:38;;;;;;;11.02;3.78;;;8.90;99.90;;;;;;4863055;29;20124;-78
2022/04/28 00:51:48;;;;;;;13.25;5.05;;;8.90;99.90;;;;;;4881205;29;20109;-78
2022/04/28 00:54:14;;;;;;;6.60;4.25;;;8.90;99.90;;;;;;4866132;29;20132;-78
2022/04/28 00:56:40;;;;;;;10.55;3.90;;;8.90;99.90;;;;;;4883174;29;20137;-78
2022/04/28 00:59:06;;;;;;;12.27;4.53;;;8.90;99.90;;;;;;4883466;29;20128;-78
2022/04/28 01:01:32;;;;;;;7.65;4.20;;;8.80;99.90;;;;;;4866201;29;20060;-78
2022/04/28 01:03:59;;;;;;;9.77;4.28;;;8.60;99.90;;;;;;4882914;29;20049;-78
2022/04/28 01:06:25;;;;;;;9.98;4.35;;;8.60;99.90;;;;;;4883033;29;20049;-78
2022/04/28 01:08:51;;;;;;;8.93;4.10;;;8.60;99.90;;;;;;4882894;29;20064;-78
2022/04/28 01:11:17;;;;;;;10.30;4.45;;;8.70;99.90;;;;;;4883322;29;20442;-78
2022/04/28 01:13:44;;;;;;;9.57;4.47;;;8.70;99.90;;;;;;4866104;29;20516;-78
2022/04/28 01:16:09;;;;;;;10.15;4.47;;;8.60;99.90;;;;;;4866224;29;20061;-78
2022/04/28 01:18:35;;;;;;;10.15;3.85;;;8.60;99.90;;;;;;4882706;29;20478;-78
2022/04/28 01:21:08;;;;;;;9.35;4.63;;;8.60;99.90;;;;;;4882745;29;20053;-78
2022/04/28 01:23:35;;;;;;;8.90;4.53;;;8.60;99.90;;;;;;4882723;29;20501;-78
2022/04/28 01:26:01;;;;;;;12.63;4.63;;;8.60;99.90;;;;;;4882481;29;20059;-78
2022/04/28 01:28:28;;;;;;;9.93;4.90;;;8.60;99.90;;;;;;4882643;29;20045;-78
2022/04/28 01:30:54;;;;;;;13.48;4.57;;;8.60;99.90;;;;;;4865746;29;20144;-78
2022/04/28 01:33:20;;;;;;;9.65;4.60;;;8.60;99.90;;;;;;4865910;29;20084;-78
2022/04/28 01:35:45;;;;;;;6.88;3.67;;;8.60;99.90;;;;;;4882474;29;20505;-78
2022/04/28 01:38:11;;;;;;;11.52;4.72;;;8.60;99.90;;;;;;4882880;29;20404;-78
2022/04/28 01:40:37;;;;;;;11.20;4.90;;;8.50;99.90;;;;;;4865562;29;20051;-78
2022/04/28 01:43:02;;;;;;;8.80;4.50;;;8.60;99.90;;;;;;4865484;29;20061;-78
2022/04/28 01:45:28;;;;;;;13.48;4.78;;;8.60;99.90;;;;;;4881033;29;20409;-78
2022/04/28 01:47:53;;;;;;;9.10;4.20;;;8.60;99.90;;;;;;4882188;29;20482;-78
2022/04/28 01:50:19;;;;;;;7.82;5.13;;;8.60;99.90;;;;;;4882263;29;20078;-78
2022/04/28 01:55:32;;;;;;;9.30;4.88;;;8.60;99.90;;;;;;4882005;29;20383;-78
2022/04/28 01:57:58;;;;;;;9.18;4.65;;;8.50;99.90;;;;;;4882068;29;20048;-78
2022/04/28 02:00:24;;;;;;;11.30;4.63;;;8.60;99.90;;;;;;4865526;29;20545;-78
2022/04/28 02:02:50;;;;;;;12.50;5.80;;;8.60;99.90;;;;;;4864520;29;20137;-78
2022/04/28 02:05:16;;;;;;;11.85;4.85;;;8.60;99.90;;;;;;4881885;29;20101;-78
2022/04/28 02:07:42;;;;;;;10.75;5.55;;;8.50;99.90;;;;;;4880572;29;20045;-78
2022/04/28 02:10:08;;;;;;;10.55;6.00;;;8.50;99.90;;;;;;4881899;29;20053;-78
2022/04/28 02:12:34;;;;;;;10.02;5.00;;;8.50;99.90;;;;;;4881848;29;20045;-78
2022/04/28 02:15:00;;;;;;;14.77;5.10;;;8.50;99.90;;;;;;4864837;29;20045;-78
2022/04/28 02:17:27;;;;;;;11.48;4.72;;;8.50;99.90;;;;;;4881643;29;20123;-78
2022/04/28 02:19:53;;;;;;;11.55;4.35;;;8.50;99.90;;;;;;4881450;29;20101;-78
2022/04/28 02:22:20;;;;;;;12.60;5.45;;;8.60;99.90;;;;;;4881644;29;20119;-78
2022/04/28 02:24:47;;;;;;;8.45;5.00;;;8.70;99.90;;;;;;4881483;29;20045;-78
2022/04/28 02:27:13;;;;;;;10.82;4.85;;;8.70;99.90;;;;;;4881559;29;20049;-78
2022/04/28 02:29:39;;;;;;;12.88;5.22;;;8.80;99.90;;;;;;4880516;29;20116;-78
2022/04/28 02:32:05;;;;;;;14.25;5.97;;;8.90;99.90;;;;;;4881487;29;20592;-78
2022/04/28 02:34:31;;;;;;;11.82;6.03;;;9.00;99.90;;;;;;4881400;29;20103;-78
2022/04/28 02:36:57;;;;;;;11.18;4.65;;;9.00;99.90;;;;;;4881906;29;20049;-78
2022/04/28 02:39:23;;;;;;;12.27;5.97;;;9.00;99.90;;;;;;4881194;29;20041;-78
2022/04/28 02:41:48;;;;;;;9.25;4.80;;;9.00;99.90;;;;;;4881300;29;20045;-78
2022/04/28 02:44:14;;;;;;;15.85;5.47;;;9.00;99.90;;;;;;4864220;29;20067;-78
2022/04/28 02:46:45;;;;;;;14.75;5.03;;;9.10;99.90;;;;;;4881187;29;20045;-78
2022/04/28 02:49:12;;;;;;;20.80;6.43;;;9.10;99.90;;;;;;4881214;29;20045;-78
2022/04/28 02:51:38;;;;;;;10.55;5.07;;;9.20;99.90;;;;;;4881165;29;20056;-78
2022/04/28 02:54:04;;;;;;;17.02;5.15;;;9.20;99.90;;;;;;4881031;29;20045;-78
2022/04/28 02:56:30;;;;;;;13.75;4.70;;;9.20;99.90;;;;;;4881073;29;20086;-78
2022/04/28 02:58:55;;;;;;;15.80;4.20;;;9.20;99.90;;;;;;4880979;29;20076;-78
2022/04/28 03:01:23;;;;;;;17.25;4.93;;;9.20;99.90;;;;;;4880959;29;20646;-78
2022/04/28 03:03:49;;;;;;;15.70;5.03;;;9.20;99.90;;;;;;4864037;29;20084;-78
2022/04/28 03:11:44;;;;;;;12.35;5.00;;;9.20;99.90;;;;;;4880779;29;20056;-78
2022/04/28 03:14:12;;;;;;;11.52;4.43;;;9.20;99.90;;;;;;4863933;29;20057;-78
2022/04/28 03:16:38;;;;;;;13.25;4.68;;;9.10;99.90;;;;;;4880720;29;20056;-78
2022/04/28 03:19:04;;;;;;;14.73;5.40;;;9.20;99.90;;;;;;4880688;29;20041;-78
2022/04/28 03:21:30;;;;;;;13.43;4.30;;;9.20;99.90;;;;;;4863849;29;20409;-78
2022/04/28 03:23:56;;;;;;;14.80;4.72;;;9.20;99.90;;;;;;4880585;29;20060;-78
2022/04/28 03:26:22;;;;;;;15.45;4.50;;;9.20;99.90;;;;;;4864095;29;20037;-78
2022/04/28 03:28:47;;;;;;;15.07;5.72;;;9.20;99.90;;;;;;4863886;29;20045;-78
2022/04/28 03:31:13;;;;;;;12.23;5.38;;;9.20;99.90;;;;;;4863860;29;20045;-78
2022/04/28 03:33:39;;;;;;;13.65;4.43;;;9.10;99.90;;;;;;4880183;29;20048;-78
2022/04/28 03:38:49;;;;;;;11.73;4.35;;;9.10;99.90;;;;;;4880297;29;20056;-78
2022/04/28 03:41:15;;;;;;;9.82;4.70;;;9.10;99.90;;;;;;4880074;29;20045;-78
2022/04/28 03:43:41;;;;;;;14.82;5.25;;;9.10;99.90;;;;;;4863271;29;20052;-78
2022/04/28 03:46:06;;;;;;;15.35;4.97;;;9.00;99.90;;;;;;4880156;29;20045;-78
2022/04/28 03:48:32;;;;;;;14.43;4.90;;;9.10;99.90;;;;;;4880213;29;20132;-78
2022/04/28 03:50:58;;;;;;;14.93;4.35;;;8.90;99.90;;;;;;4880154;29;20044;-78
2022/04/28 03:53:24;;;;;;;14.75;4.53;;;9.00;99.90;;;;;;4880022;29;20097;-78
2022/04/28 03:55:50;;;;;;;10.65;3.90;;;9.00;99.90;;;;;;4863294;29;20409;-78
2022/04/28 03:58:16;;;;;;;10.35;3.83;;;8.90;99.90;;;;;;4863422;29;20045;-78
2022/04/28 04:00:43;;;;;;;15.98;4.38;;;8.80;99.90;;;;;;4863080;29;20140;-78
2022/04/28 04:03:09;;;;;;;12.27;4.75;;;8.80;99.90;;;;;;4879821;29;20104;-76
2022/04/28 04:05:35;;;;;;;12.20;5.25;;;8.80;99.90;;;;;;4862628;29;20139;-76
2022/04/28 04:08:01;;;;;;;14.38;4.35;;;8.70;99.90;;;;;;4862500;29;20128;-76
2022/04/28 04:10:26;;;;;;;16.92;4.50;;;8.70;99.90;;;;;;4862946;29;20089;-76
2022/04/28 04:12:52;;;;;;;12.38;5.03;;;8.70;99.90;;;;;;4863060;29;20060;-76
2022/04/28 04:15:18;;;;;;;12.52;4.53;;;8.70;99.90;;;;;;4862884;29;20061;-76
2022/04/28 04:17:45;;;;;;;11.75;4.03;;;8.70;99.90;;;;;;4879790;29;20044;-76
2022/04/28 04:20:11;;;;;;;13.15;4.10;;;8.70;99.90;;;;;;4879599;29;20089;-76
2022/04/28 04:22:37;;;;;;;14.15;4.38;;;8.60;99.90;;;;;;4863077;29;20077;-76
2022/04/28 04:25:04;;;;;;;15.65;4.18;;;8.60;99.90;;;;;;4879719;29;20402;-76
2022/04/28 04:27:30;;;;;;;11.63;3.90;;;8.60;99.90;;;;;;4865563;29;20052;-76
2022/04/28 04:29:55;;;;;;;10.50;3.30;;;8.50;99.90;;;;;;4866502;29;20049;-76
2022/04/28 04:32:25;;;;;;;13.75;3.85;;;8.60;99.90;;;;;;4866597;29;20060;-76
2022/04/28 04:34:51;;;;;;;11.38;3.78;;;8.50;99.90;;;;;;4883346;29;20056;-75
2022/04/28 04:37:17;;;;;;;15.40;4.10;;;8.50;99.90;;;;;;4866489;29;20102;-76
2022/04/28 04:39:43;;;;;;;12.40;3.65;;;8.50;99.90;;;;;;4866498;29;20057;-76
2022/04/28 04:42:09;;;;;;;14.20;3.42;;;8.50;99.90;;;;;;4883262;29;20053;-76
2022/04/28 04:44:35;;;;;;;18.08;4.63;;;8.50;99.90;;;;;;4882934;29;20057;-76
2022/04/28 04:47:00;;;;;;;11.10;3.60;;;8.40;99.90;;;;;;4866592;29;20049;-76
2022/04/28 04:49:26;;;;;;;14.00;4.18;;;8.50;99.90;;;;;;4866237;29;20482;-76
2022/04/28 04:51:52;;;;;;;15.55;4.07;;;8.50;99.90;;;;;;4882805;29;20049;-76
2022/04/28 04:54:18;;;;;;;11.57;4.03;;;8.50;99.90;;;;;;4866151;29;20489;-76
2022/04/28 04:56:43;;;;;;;14.05;3.95;;;8.50;99.90;;;;;;4881639;29;20053;-76
2022/04/28 04:59:09;;;;;;;11.38;3.90;;;8.60;99.90;;;;;;4881554;29;20101;-76
2022/04/28 05:01:35;;;;;;;8.73;4.32;;;8.60;99.90;;;;;;4882931;29;20052;-76
2022/04/28 05:04:01;;;;;;;17.05;4.20;;;8.70;99.90;;;;;;4881696;29;20446;-76
2022/04/28 05:06:27;;;;;;;11.20;3.88;;;8.70;99.90;;;;;;4881192;29;20096;-76
2022/04/28 05:08:52;;;;;;;19.50;5.15;;;8.80;99.90;;;;;;4882806;29;20125;-76
2022/04/28 05:11:18;;;;;;;14.73;4.32;;;8.80;99.90;;;;;;4866112;29;20049;-76
2022/04/28 05:13:44;;;;;;;11.77;4.28;;;8.90;99.90;;;;;;4865847;29;20052;-76
2022/04/28 05:16:10;;;;;;;12.38;4.55;;;9.00;99.90;;;;;;4881602;29;20092;-76
2022/04/28 05:18:36;;;;;;;18.58;4.43;;;9.10;99.90;;;;;;4881431;29;20477;-76
2022/04/28 05:21:01;;;;;;;11.15;4.78;;;9.10;99.90;;;;;;4865632;29;20053;-76
2022/04/28 05:23:27;;;;;;;13.05;4.03;;;9.20;99.90;;;;;;4882599;29;20168;-76
2022/04/28 05:25:53;;;;;;;12.73;3.33;;;9.30;99.90;;;;;;4882481;29;20104;-76
2022/04/28 05:28:18;;;;;;;14.68;3.95;;;9.30;99.90;;;;;;4865833;29;20053;-76
2022/04/28 05:30:44;;;;;;;14.35;3.42;;;9.40;99.90;;;;;;4882396;29;20048;-76
2022/04/28 05:33:10;;;;;;;10.88;3.15;;;9.50;99.90;;;;;;4881254;29;20144;-76
2022/04/28 05:35:38;;;;;;;12.13;4.13;;;9.50;99.90;;;;;;4880775;29;20112;-77
2022/04/28 05:38:04;;;;;;;17.55;3.78;;;9.60;99.90;;;;;;4864213;29;20053;-77
2022/04/28 05:40:30;;;;;;;13.18;3.10;;;9.60;99.90;;;;;;4880803;29;20406;-77
2022/04/28 05:45:43;;;;;;;14.27;3.47;;;9.70;99.90;;;;;;4865184;29;20045;-76
2022/04/28 05:48:10;;;;;;;11.43;3.20;;;9.70;99.90;;;;;;4881161;29;20208;-77
2022/04/28 05:50:37;;;;;;;16.38;3.20;;;9.80;99.90;;;;;;4880923;29;20502;-77
2022/04/28 05:53:03;;;;;;;11.20;3.78;;;9.90;99.90;;;;;;4865007;29;20398;-76
2022/04/28 05:55:28;;;;;;;9.10;3.00;;;10.00;99.90;;;;;;4880616;29;20511;-77
2022/04/28 05:57:57;;;;;;;11.43;2.83;;;10.10;99.90;;;;;;4880397;29;20041;-76
2022/04/28 06:00:23;;;;;;;16.30;3.50;;;10.10;99.90;;;;;;4864989;29;20117;-77
2022/04/28 06:02:48;;;;;;;16.33;2.95;;;10.10;99.90;;;;;;4880674;29;20049;-76
2022/04/28 06:05:14;;;;;;;19.90;3.35;;;10.00;99.90;;;;;;4881607;29;20509;-76
2022/04/28 06:07:40;;;;;;;19.20;3.60;;;10.00;99.90;;;;;;4880729;29;20128;-77
2022/04/28 06:10:06;;;;;;;12.90;3.20;;;10.00;99.90;;;;;;4880366;29;20455;-77
2022/04/28 06:12:32;;;;;;;19.65;4.13;;;10.10;99.90;;;;;;4865119;29;20088;-77
2022/04/28 06:14:57;;;;;;;14.48;3.60;;;10.20;99.90;;;;;;4880187;29;20133;-75
2022/04/28 06:17:23;;;;;;;8.65;2.58;;;10.40;99.90;;;;;;4864732;29;20088;-76
2022/04/28 06:19:49;;;;;;;14.23;3.22;;;10.50;99.90;;;;;;4880546;29;20123;-76
2022/04/28 06:22:14;;;;;;;20.27;3.90;;;10.70;99.90;;;;;;4882047;29;20421;-76
2022/04/28 06:24:40;;;;;;;14.35;3.85;;;10.80;99.90;;;;;;4872614;29;20482;-76
2022/04/28 06:27:05;;;;;;;14.20;3.25;;;10.90;99.90;;;;;;4864511;29;20049;-76
2022/04/28 06:29:31;;;;;;;10.45;3.00;;;11.00;99.90;;;;;;4891063;29;20048;-78
2022/04/28 06:31:57;;;;;;;12.73;3.47;;;11.10;99.90;;;;;;4864347;29;20434;-76
2022/04/28 06:34:22;;;;;;;19.60;3.67;;;11.10;99.90;;;;;;4864212;29;20045;-77
2022/04/28 06:36:48;;;;;;;14.02;3.50;;;11.20;99.90;;;;;;4881104;29;20049;-76
2022/04/28 06:39:14;;;;;;;18.67;3.78;;;11.10;99.90;;;;;;4881130;29;20127;-78
2022/04/28 06:41:39;;;;;;;14.90;4.03;;;11.00;99.90;;;;;;4880928;29;20063;-78
2022/04/28 06:44:05;;;;;;;17.13;4.72;;;11.00;99.90;;;;;;4880285;29;20147;-78
2022/04/28 06:46:31;;;;;;;16.50;3.70;;;11.20;99.90;;;;;;4864050;29;20121;-78
2022/04/28 06:48:57;;;;;;;13.32;4.30;;;11.20;99.90;;;;;;4863803;29;20100;-78
2022/04/28 06:51:23;;;;;;;11.20;4.10;;;11.40;99.90;;;;;;4864009;29;20056;-78
2022/04/28 06:53:48;;;;;;;13.10;3.00;;;11.70;99.90;;;;;;4863788;29;20056;-77
2022/04/28 06:56:14;;;;;;;17.95;3.85;;;11.90;99.90;;;;;;4880855;29;20053;-78
2022/04/28 06:58:40;;;;;;;16.50;3.33;;;12.00;99.90;;;;;;4863888;29;20045;-78
2022/04/28 07:01:05;;;;;;;11.40;3.60;;;12.10;99.90;;;;;;4880750;29;20049;-78
2022/04/28 07:03:32;;;;;;;13.48;3.92;;;12.00;99.90;;;;;;4863963;29;20560;-78
2022/04/28 07:05:57;;;;;;;16.77;4.55;;;11.90;99.90;;;;;;4880463;29;20064;-77
2022/04/28 07:08:23;;;;;;;19.92;5.18;;;11.90;99.90;;;;;;4880382;29;20045;-77
2022/04/28 07:10:49;;;;;;;12.88;4.70;;;11.70;99.90;;;;;;4880625;29;20040;-77
2022/04/28 07:13:15;;;;;;;23.10;6.20;;;11.50;99.90;;;;;;4863464;29;20413;-77
2022/04/28 07:15:41;;;;;;;19.85;4.93;;;11.60;99.90;;;;;;4863595;29;20504;-76
2022/04/28 07:18:06;;;;;;;11.18;4.93;;;11.60;99.90;;;;;;4863525;29;20049;-76
2022/04/28 07:20:33;;;;;;;15.23;5.47;;;11.50;99.90;;;;;;4880239;29;20412;-76
2022/04/28 07:23:00;;;;;;;12.40;3.85;;;11.50;99.90;;;;;;4880115;29;20519;-76
2022/04/28 07:25:30;;;;;;;14.68;4.95;;;11.60;99.90;;;;;;4880107;29;20057;-77
2022/04/28 07:27:56;;;;;;;18.92;5.03;;;11.60;99.90;;;;;;4863277;29;20121;-76
2022/04/28 07:30:23;;;;;;;12.82;5.28;;;11.50;99.90;;;;;;4863379;29;20064;-77
2022/04/28 07:32:50;;;;;;;17.98;5.47;;;11.40;99.90;;;;;;4863372;29;20049;-75
2022/04/28 07:35:16;;;;;;;19.13;5.85;;;11.50;99.90;;;;;;4863187;29;20045;-75
2022/04/28 07:37:42;;;;;;;21.77;6.60;;;11.40;99.90;;;;;;4880005;29;20040;-76
2022/04/28 07:40:08;;;;;;;20.58;5.72;;;11.40;99.90;;;;;;4863356;29;20463;-76
2022/04/28 07:42:34;;;;;;;20.33;5.32;;;11.50;99.90;;;;;;4863307;29;20049;-77
2022/04/28 07:45:00;;;;;;;21.20;6.32;;;11.70;99.90;;;;;;4879714;29;20490;-76
2022/04/28 07:47:28;;;;;;;20.20;6.65;;;11.80;99.90;;;;;;4862839;29;20387;-79
2022/04/28 07:49:55;;;;;;;16.48;6.32;;;11.80;99.90;;;;;;4863256;29;20053;-77
2022/04/28 07:52:20;;;;;;;17.02;5.88;;;11.70;99.90;;;;;;4863110;29;20057;-76
2022/04/28 07:54:46;;;;;;;24.50;7.55;;;11.70;99.90;;;;;;4879379;29;20053;-77
2022/04/28 07:57:12;;;;;;;19.38;5.90;;;11.70;99.90;;;;;;4863174;29;20052;-77
2022/04/28 07:59:38;;;;;;;15.65;5.57;;;11.70;99.90;;;;;;4879903;29;20069;-76
2022/04/28 08:02:05;;;;;;;23.45;6.20;;;11.60;99.90;;;;;;4862524;29;20113;-76
2022/04/28 08:04:32;;;;;;;16.30;7.28;;;11.70;99.90;;;;;;4879460;29;20422;-76
2022/04/28 08:06:58;;;;;;;27.75;7.13;;;11.70;99.90;;;;;;4862426;29;20081;-77
2022/04/28 08:09:24;;;;;;;17.33;6.22;;;11.80;99.90;;;;;;4846947;29;20091;-76
2022/04/28 08:11:49;;;;;;;19.35;5.95;;;12.00;99.90;;;;;;4862725;29;20048;-74
2022/04/28 08:14:15;;;;;;;23.42;6.18;;;12.00;99.90;;;;;;4862747;29;20060;-75
2022/04/28 08:16:41;;;;;;;21.00;6.18;;;12.00;99.90;;;;;;4862547;29;20063;-74
2022/04/28 08:19:09;;;;;;;24.08;7.25;;;12.00;99.90;;;;;;4862941;29;20037;-74
2022/04/28 08:21:34;;;;;;;27.23;6.25;;;12.00;99.90;;;;;;4879662;29;20060;-76
2022/04/28 08:24:00;;;;;;;25.85;6.85;;;12.10;99.90;;;;;;4862600;29;20048;-76
2022/04/28 08:26:26;;;;;;;19.42;6.50;;;12.10;99.90;;;;;;4862490;29;20049;-76
2022/04/28 08:28:52;;;;;;;24.92;6.07;;;12.10;99.90;;;;;;4862618;29;20124;-75
2022/04/28 08:31:17;;;;;;;15.57;5.47;;;12.00;99.90;;;;;;4862718;29;20108;-75
2022/04/28 08:33:43;;;;;;;16.80;5.50;;;12.20;99.90;;;;;;4862758;29;20049;-75
2022/04/28 08:36:08;;;;;;;28.25;6.43;;;12.40;99.90;;;;;;4862573;29;20455;-76
2022/04/28 08:38:34;;;;;;;17.83;6.68;;;12.30;99.90;;;;;;4878987;29;20045;-76
2022/04/28 08:41:02;;;;;;;29.95;5.93;;;12.40;99.90;;;;;;4862464;29;20573;-75
2022/04/28 08:43:31;;;;;;;19.60;6.85;;;12.20;99.90;;;;;;4862332;29;20490;-77
2022/04/28 08:48:53;;;;;;;21.85;6.03;;;12.10;99.90;;;;;;4862813;29;20068;-76
2022/04/28 08:51:27;;;;;;;22.15;6.63;;;12.00;99.90;;;;;;4862663;29;20096;-76
2022/04/28 08:53:54;;;;;;;20.65;6.25;;;12.00;99.90;;;;;;4862362;29;20057;-77
2022/04/28 08:56:21;;;;;;;14.02;6.38;;;12.40;99.90;;;;;;4878869;29;20489;-77
2022/04/28 08:58:47;;;;;;;22.20;6.60;;;12.60;99.90;;;;;;4879291;29;20084;-77
2022/04/28 09:01:13;;;;;;;20.90;6.80;;;12.50;99.90;;;;;;4862698;29;20060;-77
2022/04/28 09:03:41;;;;;;;20.73;6.05;;;12.60;99.90;;;;;;4862212;29;20049;-77
2022/04/28 09:06:24;;;;;;;19.17;6.53;;;12.50;99.90;;;;;;4862432;29;20052;-76
2022/04/28 09:08:50;;;;;;;;;;;12.50;99.90;;;;;;4862756;29;20128;-77
2022/04/28 09:11:24;;;;;;;26.48;7.13;;;12.40;99.90;;;;;;4862138;29;19924;-77
2022/04/28 09:14:14;;;;;;;19.20;5.43;;;12.40;99.90;;;;;;4882141;29;20053;-77
2022/04/28 09:16:56;;;;;;;21.40;6.35;;;12.30;99.90;;;;;;4865939;29;20096;-77
2022/04/28 09:19:23;;;;;;;18.27;5.82;;;12.30;99.90;;;;;;4865677;29;20048;-77
2022/04/28 09:21:53;;;;;;;16.52;6.10;;;12.40;99.90;;;;;;4865862;29;20045;-77
2022/04/28 09:24:20;;;;;;;19.25;6.20;;;12.40;99.90;;;;;;4882339;29;20041;-77
2022/04/28 09:26:48;;;;;;;25.35;5.65;;;12.40;99.90;;;;;;4865710;29;20132;-77
2022/04/28 09:29:15;;;;;;;19.10;5.72;;;12.30;99.90;;;;;;4865400;29;20417;-77
2022/04/28 09:31:46;;;;;;;21.20;5.38;;;12.20;99.90;;;;;;4865459;29;20402;-78
2022/04/28 09:34:17;;;;;;;21.70;5.65;;;12.20;99.90;;;;;;4865311;29;20402;-77
2022/04/28 09:36:44;;;;;;;16.55;6.82;;;12.30;99.90;;;;;;4882317;29;20112;-77
2022/04/28 09:42:29;;;;;;;19.58;5.22;;;12.30;99.90;;;;;;4865050;29;20045;-77
2022/04/28 09:44:52;;;;;;;16.33;5.50;;;12.40;99.90;;;;;;4865070;29;20072;-77
2022/04/28 09:47:22;;;;;;;17.08;5.90;;;12.30;99.90;;;;;;4865016;29;20490;-77
2022/04/28 09:49:58;;;;;;;22.98;6.28;;;12.50;99.90;;;;;;4865043;29;20482;-77
2022/04/28 09:52:26;;;;;;;15.98;5.05;;;12.50;99.90;;;;;;4865131;29;20148;-78
2022/04/28 09:54:57;;;;;;;19.88;6.00;;;12.60;99.90;;;;;;4865096;29;20068;-78
2022/04/28 09:57:24;;;;;;;20.13;6.00;;;12.70;99.90;;;;;;4881865;29;20099;-76
2022/04/28 09:59:55;;;;;;;18.45;5.80;;;12.50;99.90;;;;;;4864935;29;20112;-78
2022/04/28 10:02:27;;;;;;;20.63;5.50;;;12.50;99.90;;;;;;4864820;29;20059;-77
2022/04/28 10:04:54;;;;;;;17.17;5.60;;;12.50;99.90;;;;;;4881921;29;20097;-77
2022/04/28 10:07:21;;;;;;;17.50;5.65;;;12.50;99.90;;;;;;4865103;29;20711;-77
2022/04/28 10:09:49;;;;;;;22.05;5.82;;;12.40;99.90;;;;;;4864767;29;20123;-76
2022/04/28 10:12:19;;;;;;;18.58;6.45;;;12.40;99.90;;;;;;4864690;29;20064;-77
2022/04/28 10:14:46;;;;;;;19.00;6.90;;;12.10;99.90;;;;;;4864267;29;20071;-77
2022/04/28 10:17:28;;;;;;;13.25;6.15;;;12.20;99.90;;;;;;4875411;29;20052;-76
2022/04/28 10:19:58;;;;;;;18.52;6.22;;;12.20;99.90;;;;;;4883340;29;20060;-76
2022/04/28 10:22:29;;;;;;;21.67;5.93;;;12.20;99.90;;;;;;4883102;29;20565;-77
2022/04/28 10:33:38;;;;;;;20.05;6.13;;;11.90;99.90;;;;;;4896232;29;20059;-78
2022/04/28 10:36:04;;;;;;;;;;;12.00;99.90;;;;;;4883597;29;20064;-78
2022/04/28 10:38:38;;;;;;;20.85;6.20;;;12.20;99.90;;;;;;4882628;29;19923;-78
2022/04/28 10:41:08;;;;;;;20.50;6.15;;;12.20;99.90;;;;;;4882839;29;20572;-78
2022/04/28 10:43:41;;;;;;;15.75;6.20;;;12.30;99.90;;;;;;4885747;29;20417;-78
2022/04/28 10:46:07;;;;;;;13.23;5.90;;;12.30;99.90;;;;;;4898589;29;20056;-78
2022/04/28 10:48:34;;;;;;;19.50;6.50;;;12.20;99.90;;;;;;4898478;29;20054;-79
2022/04/28 10:51:11;;;;;;;17.88;6.22;;;12.40;99.90;;;;;;4897446;29;20056;-77
2022/04/28 10:54:22;;;;;;;17.45;5.30;;;12.40;99.90;;;;;;4898410;29;20136;-78
2022/04/28 10:56:54;;;;;;;14.05;5.50;;;12.50;99.90;;;;;;4826394;29;20058;-78
2022/04/28 10:59:46;;;;;;;16.85;5.78;;;12.50;99.90;;;;;;4890411;29;20409;-77
2022/04/28 11:02:11;;;;;;;16.48;5.35;;;12.30;99.90;;;;;;4897759;29;20382;-78
2022/04/28 11:04:41;;;;;;;12.93;5.45;;;12.40;99.90;;;;;;4897916;29;20520;-78
2022/04/28 11:07:19;;;;;;;16.02;5.05;;;12.10;99.90;;;;;;4898340;29;20048;-77
2022/04/28 11:09:51;;;;;;;17.00;5.53;;;12.10;99.90;;;;;;4898145;29;20409;-78
2022/04/28 11:12:18;;;;;;;19.27;5.40;;;12.20;99.90;;;;;;4898038;29;20055;-77
2022/04/28 11:14:44;;;;;;;13.77;5.20;;;12.30;99.90;;;;;;4897836;29;20052;-76
2022/04/28 11:17:18;;;;;;;14.30;5.43;;;12.40;99.90;;;;;;4897682;29;20044;-75
2022/04/28 11:19:44;;;;;;;14.57;5.13;;;12.40;99.90;;;;;;4897914;29;20057;-76
2022/04/28 11:22:13;;;;;;;15.90;5.35;;;12.40;99.90;;;;;;4897610;29;20509;-76
2022/04/28 11:24:46;;;;;;;17.60;5.43;;;12.20;99.90;;;;;;4897831;29;20131;-76
2022/04/28 11:27:19;;;;;;;17.70;5.55;;;12.20;99.90;;;;;;4897840;29;20072;-75
2022/04/28 11:29:46;;;;;;;19.58;5.55;;;12.30;99.90;;;;;;4897373;29;20064;-77
2022/04/28 11:32:14;;;;;;;11.45;5.35;;;12.20;99.90;;;;;;4898713;29;20052;-77
2022/04/28 11:34:41;;;;;;;26.02;6.32;;;12.10;99.90;;;;;;4898814;29;20040;-78
2022/04/28 11:37:17;;;;;;;17.23;6.53;;;12.30;99.90;;;;;;4897802;29;20512;-77
2022/04/28 11:39:47;;;;;;;18.85;6.28;;;12.20;99.90;;;;;;4898315;29;20501;-77
2022/04/28 11:42:16;;;;;;;17.50;6.22;;;12.00;99.90;;;;;;4898993;29;20040;-77
2022/04/28 11:44:55;;;;;;;17.15;6.25;;;12.00;99.90;;;;;;4897112;29;20045;-77
2022/04/28 11:47:23;;;;;;;16.67;5.65;;;11.90;99.90;;;;;;4897404;29;20057;-77
2022/04/28 11:49:56;;;;;;;18.35;5.43;;;12.10;99.90;;;;;;4897202;29;20048;-76
2022/04/28 11:52:27;;;;;;;14.13;5.57;;;12.30;99.90;;;;;;4898768;29;20048;-79
2022/04/28 11:55:05;;;;;;;16.92;6.80;;;12.40;99.90;;;;;;4897111;29;20655;-77
2022/04/28 11:57:32;;;;;;;19.40;6.10;;;12.40;99.90;;;;;;4897090;29;20064;-75
2022/04/28 11:59:59;;;;;;;17.38;5.18;;;12.60;99.90;;;;;;4897250;29;20374;-76
2022/04/28 12:02:25;;;;;;;15.93;5.18;;;12.60;99.90;;;;;;4897351;29;20052;-77
2022/04/28 12:04:51;;;;;;;16.00;6.65;;;12.70;99.90;;;;;;4898014;29;20048;-81
2022/04/28 12:07:27;;;;;;;16.20;6.03;;;12.80;99.90;;;;;;4897141;29;20135;-79
2022/04/28 12:15:25;;;;;;;13.98;5.13;;;13.00;99.90;;;;;;4897989;29;20417;-75
2022/04/28 12:20:39;;;;;;;13.40;5.65;;;13.20;99.90;;;;;;4896852;29;20058;-78
2022/04/28 12:23:04;;;;;;;13.88;5.60;;;13.30;99.90;;;;;;4896691;29;20128;-77
2022/04/28 12:25:33;;;;;;;20.83;6.75;;;13.50;99.90;;;;;;4896764;29;20049;-77
2022/04/28 12:27:59;;;;;;;19.58;5.60;;;13.80;99.90;;;;;;4896382;29;20052;-79
2022/04/28 12:30:25;;;;;;;15.13;5.53;;;14.00;99.90;;;;;;4896821;29;20044;-79
2022/04/28 12:32:54;;;;;;;18.90;6.35;;;13.80;99.90;;;;;;4896797;29;20461;-81
2022/04/28 12:35:30;;;;;;;18.67;5.20;;;13.60;99.90;;;;;;4896744;29;20497;-81
2022/04/28 12:38:04;;;;;;;19.40;5.15;;;13.70;99.90;;;;;;4896719;29;20053;-79
2022/04/28 12:40:41;;;;;;;13.85;5.43;;;13.60;99.90;;;;;;4896509;29;20059;-80
2022/04/28 12:43:08;;;;;;;13.68;5.18;;;13.70;99.90;;;;;;4897889;29;20052;-79
2022/04/28 12:45:47;;;;;;;14.15;4.40;;;13.70;99.90;;;;;;4881424;29;20075;-79
2022/04/28 12:48:27;;;;;;;12.90;4.80;;;13.60;99.90;;;;;;4883309;29;20104;-76
2022/04/28 12:51:11;;;;;;;10.20;4.32;;;13.60;99.90;;;;;;4884952;29;20062;-77
2022/04/28 12:53:37;;;;;;;12.75;4.85;;;13.70;99.90;;;;;;4901354;29;20080;-79
2022/04/28 12:56:08;;;;;;;16.48;5.13;;;13.30;99.90;;;;;;4884887;29;20048;-76
2022/04/28 12:58:42;;;;;;;17.02;5.72;;;13.30;99.90;;;;;;4884865;29;20056;-75
2022/04/28 13:01:10;;;;;;;11.98;4.85;;;13.30;99.90;;;;;;4884790;29;20052;-75
2022/04/28 13:03:36;;;;;;;17.13;4.07;;;13.10;99.90;;;;;;4884686;29;20084;-77
2022/04/28 13:06:02;;;;;;;13.07;4.47;;;13.30;99.90;;;;;;4884713;29;20063;-78
2022/04/28 13:08:27;;;;;;;12.45;5.13;;;13.20;99.90;;;;;;4884213;29;20049;-77
2022/04/28 13:10:53;;;;;;;15.65;4.78;;;13.30;99.90;;;;;;4884486;29;20060;-76
2022/04/28 13:13:19;;;;;;;11.32;4.32;;;13.60;99.90;;;;;;4884585;29;20052;-79
2022/04/28 13:15:45;;;;;;;11.90;4.57;;;13.60;99.90;;;;;;4884123;29;20095;-78
2022/04/28 13:18:11;;;;;;;14.85;4.90;;;13.60;99.90;;;;;;4901341;29;20119;-77
2022/04/28 13:20:36;;;;;;;15.35;4.63;;;13.40;99.90;;;;;;4884002;29;20131;-78
2022/04/28 13:23:02;;;;;;;15.43;5.25;;;13.50;99.90;;;;;;4884407;29;20040;-77